Terminal Aerodrome Forecast
Issued by NWS

Home | Current Version | Previous Version | Text Only | Print | Product List | Glossary On
Versions: 1 2 3 4 5 6 7 8 9 10 11 12 13 14
000
FTUS45 KVEF 171100
TAFBIH
TAF
KBIH 171127Z 1712/1812 34006KT P6SM FEW250
     FM172000 16014G24KT P6SM SCT120 SCT250
     FM180300 16010KT P6SM FEW120 BKN250
     FM180900 34006KT P6SM SKC=

USA.gov is the U.S. government's official web portal to all federal, state and local government web resources and services.